sensor_id;sensor_type;location;lat;lon;timestamp;pressure;altitude;pressure_sealevel;temperature;humidity
23679;BME280;12016;51.668;6.874;2023-01-13T00:01:46;100069.81;;;8.98;88.92
23679;BME280;12016;51.668;6.874;2023-01-13T00:07:47;99900.44;;;7.70;88.45
23679;BME280;12016;51.668;6.874;2023-01-13T00:13:49;100112.78;;;8.72;88.15
23679;BME280;12016;51.668;6.874;2023-01-13T00:19:51;100209.19;;;9.68;89.21
23679;BME280;12016;51.668;6.874;2023-01-13T00:25:57;100250.47;;;9.55;89.58
23679;BME280;12016;51.668;6.874;2023-01-13T00:31:59;100150.56;;;9.01;89.02
23679;BME280;12016;51.668;6.874;2023-01-13T00:38:00;100146.31;;;9.00;88.20
23679;BME280;12016;51.668;6.874;2023-01-13T00:44:02;100085.47;;;8.44;88.47
23679;BME280;12016;51.668;6.874;2023-01-13T00:50:04;100112.78;;;8.72;88.54
23679;BME280;12016;51.668;6.874;2023-01-13T00:56:16;100244.78;;;9.56;87.46
23679;BME280;12016;51.668;6.874;2023-01-13T01:02:22;100054.13;;;8.13;88.61
23679;BME280;12016;51.668;6.874;2023-01-13T01:08:24;99785.81;;;6.75;87.40
23679;BME280;12016;51.668;6.874;2023-01-13T01:14:26;100199.56;;;9.41;86.89
23679;BME280;12016;51.668;6.874;2023-01-13T01:20:29;100219.78;;;9.56;87.46
23679;BME280;12016;51.668;6.874;2023-01-13T01:26:30;100085.78;;;8.59;87.83
23679;BME280;12016;51.668;6.874;2023-01-13T01:32:33;99581.22;;;5.06;86.79
23679;BME280;12016;51.668;6.874;2023-01-13T01:38:35;100063.22;;;8.52;87.49
23679;BME280;12016;51.668;6.874;2023-01-13T01:50:41;100041.88;;;8.38;84.93
23679;BME280;12016;51.668;6.874;2023-01-13T01:56:44;100192.63;;;9.31;84.50
23679;BME280;12016;51.668;6.874;2023-01-13T02:02:48;100123.69;;;8.84;85.79
23679;BME280;12016;51.668;6.874;2023-01-13T02:08:51;100246.38;;;9.57;84.46
23679;BME280;12016;51.668;6.874;2023-01-13T02:14:52;100149.00;;;9.09;84.38
23679;BME280;12016;51.668;6.874;2023-01-13T02:21:59;100146.94;;;9.06;81.87
23679;BME280;12016;51.668;6.874;2023-01-13T02:28:05;100052.94;;;8.37;82.58
23679;BME280;12016;51.668;6.874;2023-01-13T02:34:35;100243.47;;;9.88;81.96
23679;BME280;12016;51.668;6.874;2023-01-13T02:40:48;100059.41;;;8.62;80.81
23679;BME280;12016;51.668;6.874;2023-01-13T02:47:16;100228.78;;;9.77;79.62
23679;BME280;12016;51.668;6.874;2023-01-13T02:53:34;100095.28;;;8.66;78.50
23679;BME280;12016;51.668;6.874;2023-01-13T02:59:39;100236.69;;;9.65;80.83
23679;BME280;12016;51.668;6.874;2023-01-13T03:05:43;100171.09;;;9.23;80.92
23679;BME280;12016;51.668;6.874;2023-01-13T03:11:58;100200.81;;;9.26;79.37
23679;BME280;12016;51.668;6.874;2023-01-13T03:24:53;100119.09;;;8.58;77.73
23679;BME280;12016;51.668;6.874;2023-01-13T03:31:02;100090.78;;;8.27;80.91
23679;BME280;12016;51.668;6.874;2023-01-13T03:37:07;100007.34;;;7.80;80.26
23679;BME280;12016;51.668;6.874;2023-01-13T03:43:13;100106.59;;;8.45;81.04
23679;BME280;12016;51.668;6.874;2023-01-13T03:56:08;99993.28;;;7.66;76.49
23679;BME280;12016;51.668;6.874;2023-01-13T04:02:24;100119.88;;;8.50;77.01
23679;BME280;12016;51.668;6.874;2023-01-13T04:08:33;100200.81;;;9.01;77.04
23679;BME280;12016;51.668;6.874;2023-01-13T04:14:36;100231.31;;;9.13;78.66
23679;BME280;12016;51.668;6.874;2023-01-13T04:20:38;100067.84;;;8.03;79.02
23679;BME280;12016;51.668;6.874;2023-01-13T04:26:40;99627.66;;;5.50;77.09
23679;BME280;12016;51.668;6.874;2023-01-13T04:32:42;100121.81;;;8.67;76.84
23679;BME280;12016;51.668;6.874;2023-01-13T04:38:44;100198.47;;;9.16;75.85
23679;BME280;12016;51.668;6.874;2023-01-13T04:44:45;100186.78;;;9.21;76.68
23679;BME280;12016;51.668;6.874;2023-01-13T04:50:47;100140.94;;;8.91;74.85
23679;BME280;12016;51.668;6.874;2023-01-13T04:56:49;100063.66;;;8.37;74.88
23679;BME280;12016;51.668;6.874;2023-01-13T05:02:51;100144.25;;;8.80;73.71
23679;BME280;12016;51.668;6.874;2023-01-13T05:08:53;100197.84;;;9.19;73.84
23679;BME280;12016;51.668;6.874;2023-01-13T05:14:55;100056.47;;;8.06;74.49
23679;BME280;12016;51.668;6.874;2023-01-13T05:21:15;100203.06;;;9.07;74.80
23679;BME280;12016;51.668;6.874;2023-01-13T05:27:36;100024.41;;;7.84;76.52
23679;BME280;12016;51.668;6.874;2023-01-13T05:33:37;100215.34;;;9.00;75.60
23679;BME280;12016;51.668;6.874;2023-01-13T05:39:39;100125.38;;;8.37;76.21
23679;BME280;12016;51.668;6.874;2023-01-13T05:46:07;100210.94;;;8.95;76.60
23679;BME280;12016;51.668;6.874;2023-01-13T05:52:09;100206.34;;;8.95;76.17
23679;BME280;12016;51.668;6.874;2023-01-13T05:58:12;100006.22;;;7.64;76.16
23679;BME280;12016;51.668;6.874;2023-01-13T06:04:14;100132.16;;;8.34;75.53
23679;BME280;12016;51.668;6.874;2023-01-13T06:10:16;99836.53;;;6.50;74.63
23679;BME280;12016;51.668;6.874;2023-01-13T06:16:20;100041.09;;;7.81;75.19
23679;BME280;12016;51.668;6.874;2023-01-13T06:22:26;99995.91;;;7.48;74.49
23679;BME280;12016;51.668;6.874;2023-01-13T06:28:33;100191.25;;;8.60;75.45
23679;BME280;12016;51.668;6.874;2023-01-13T06:34:35;100218.34;;;8.81;74.02
23679;BME280;12016;51.668;6.874;2023-01-13T06:40:40;100057.81;;;7.78;73.76
23679;BME280;12016;51.668;6.874;2023-01-13T06:46:43;100184.78;;;8.61;73.86
23679;BME280;12016;51.668;6.874;2023-01-13T06:52:45;100003.94;;;7.48;73.41
23679;BME280;12016;51.668;6.874;2023-01-13T06:58:47;100058.16;;;7.85;73.26
23679;BME280;12016;51.668;6.874;2023-01-13T07:04:48;99874.06;;;6.58;72.20
23679;BME280;12016;51.668;6.874;2023-01-13T07:10:50;100241.28;;;8.95;71.58
23679;BME280;12016;51.668;6.874;2023-01-13T07:16:53;100015.41;;;7.40;71.60
23679;BME280;12016;51.668;6.874;2023-01-13T07:22:55;100248.38;;;8.91;71.86
23679;BME280;12016;51.668;6.874;2023-01-13T07:28:57;100229.81;;;8.73;71.73
23679;BME280;12016;51.668;6.874;2023-01-13T07:34:59;100244.22;;;8.68;71.00
23679;BME280;12016;51.668;6.874;2023-01-13T07:41:05;100279.31;;;8.80;70.66
23679;BME280;12016;51.668;6.874;2023-01-13T07:47:26;100249.91;;;8.84;70.59
23679;BME280;12016;51.668;6.874;2023-01-13T07:53:27;100270.00;;;8.86;70.47
23679;BME280;12016;51.668;6.874;2023-01-13T07:59:29;100269.25;;;8.94;70.00
23679;BME280;12016;51.668;6.874;2023-01-13T08:05:33;100257.69;;;8.94;68.76
23679;BME280;12016;51.668;6.874;2023-01-13T08:11:35;100274.63;;;9.03;69.18
23679;BME280;12016;51.668;6.874;2023-01-13T08:17:37;100289.47;;;9.09;68.05
23679;BME280;12016;51.668;6.874;2023-01-13T08:23:39;100295.00;;;9.04;67.94
23679;BME280;12016;51.668;6.874;2023-01-13T08:29:40;100314.94;;;9.12;68.20
23679;BME280;12016;51.668;6.874;2023-01-13T08:35:42;100300.06;;;9.14;68.31
23679;BME280;12016;51.668;6.874;2023-01-13T08:41:44;100295.06;;;9.21;67.34
23679;BME280;12016;51.668;6.874;2023-01-13T08:47:59;100301.53;;;9.29;66.94
23679;BME280;12016;51.668;6.874;2023-01-13T08:54:00;100319.06;;;9.18;67.72
23679;BME280;12016;51.668;6.874;2023-01-13T09:00:03;100346.41;;;9.20;67.53
23679;BME280;12016;51.668;6.874;2023-01-13T09:06:06;100322.69;;;9.22;68.73
23679;BME280;12016;51.668;6.874;2023-01-13T09:12:11;100321.75;;;9.35;66.96
23679;BME280;12016;51.668;6.874;2023-01-13T09:18:32;100327.03;;;9.57;67.62
23679;BME280;12016;51.668;6.874;2023-01-13T09:24:34;100332.72;;;9.47;67.53
23679;BME280;12016;51.668;6.874;2023-01-13T09:30:35;100324.78;;;9.42;67.46
23679;BME280;12016;51.668;6.874;2023-01-13T09:36:38;100337.31;;;9.47;67.38
23679;BME280;12016;51.668;6.874;2023-01-13T09:42:44;100351.22;;;9.57;67.15
23679;BME280;12016;51.668;6.874;2023-01-13T09:49:07;100346.00;;;9.87;66.00
23679;BME280;12016;51.668;6.874;2023-01-13T09:55:14;100355.19;;;9.86;66.11
23679;BME280;12016;51.668;6.874;2023-01-13T10:07:25;100363.88;;;10.00;65.06
23679;BME280;12016;51.668;6.874;2023-01-13T10:13:30;100353.09;;;10.17;64.96
23679;BME280;12016;51.668;6.874;2023-01-13T10:26:09;100365.16;;;10.02;64.40
23679;BME280;12016;51.668;6.874;2023-01-13T10:32:14;100353.59;;;10.11;65.29
23679;BME280;12016;51.668;6.874;2023-01-13T10:44:22;100355.66;;;9.96;65.42
23679;BME280;12016;51.668;6.874;2023-01-13T10:50:26;100363.72;;;9.88;66.06
23679;BME280;12016;51.668;6.874;2023-01-13T10:56:30;100361.81;;;9.62;66.83
23679;BME280;12016;51.668;6.874;2023-01-13T11:02:32;100373.75;;;9.22;70.02
23679;BME280;12016;51.668;6.874;2023-01-13T11:08:43;100372.22;;;9.38;70.10
23679;BME280;12016;51.668;6.874;2023-01-13T11:14:46;100374.16;;;9.63;69.35
23679;BME280;12016;51.668;6.874;2023-01-13T11:20:48;100373.69;;;10.13;65.55
23679;BME280;12016;51.668;6.874;2023-01-13T11:26:59;100385.41;;;9.83;70.39
23679;BME280;12016;51.668;6.874;2023-01-13T11:39:18;100401.84;;;8.76;75.92
23679;BME280;12016;51.668;6.874;2023-01-13T11:51:33;100420.69;;;8.54;77.92
23679;BME280;12016;51.668;6.874;2023-01-13T12:03:42;100459.97;;;8.14;83.93
23679;BME280;12016;51.668;6.874;2023-01-13T12:09:59;100437.91;;;8.17;81.29
23679;BME280;12016;51.668;6.874;2023-01-13T12:16:16;100443.75;;;8.55;79.68
23679;BME280;12016;51.668;6.874;2023-01-13T12:22:25;100448.06;;;9.26;76.11
23679;BME280;12016;51.668;6.874;2023-01-13T12:28:33;100442.25;;;10.59;73.27
23679;BME280;12016;51.668;6.874;2023-01-13T12:34:45;100443.28;;;9.63;74.29
23679;BME280;12016;51.668;6.874;2023-01-13T12:41:01;100460.47;;;9.45;74.17
23679;BME280;12016;51.668;6.874;2023-01-13T12:47:08;100437.25;;;9.57;72.79
23679;BME280;12016;51.668;6.874;2023-01-13T12:53:33;100440.34;;;9.99;72.67
23679;BME280;12016;51.668;6.874;2023-01-13T12:59:35;100446.25;;;9.61;73.96
23679;BME280;12016;51.668;6.874;2023-01-13T13:05:45;100453.47;;;9.35;72.34
23679;BME280;12016;51.668;6.874;2023-01-13T13:11:49;100470.97;;;9.24;73.12
23679;BME280;12016;51.668;6.874;2023-01-13T13:24:09;100509.81;;;8.29;77.65
23679;BME280;12016;51.668;6.874;2023-01-13T13:36:20;100530.69;;;7.22;86.36
23679;BME280;12016;51.668;6.874;2023-01-13T13:42:28;100538.19;;;7.52;87.66
23679;BME280;12016;51.668;6.874;2023-01-13T13:48:54;100543.75;;;7.70;85.14
23679;BME280;12016;51.668;6.874;2023-01-13T13:54:57;100568.16;;;7.82;85.72
23679;BME280;12016;51.668;6.874;2023-01-13T14:00:59;100568.75;;;7.93;84.05
23679;BME280;12016;51.668;6.874;2023-01-13T14:07:03;100582.66;;;7.81;84.54
23679;BME280;12016;51.668;6.874;2023-01-13T14:13:28;100598.16;;;7.84;84.52
23679;BME280;12016;51.668;6.874;2023-01-13T14:19:31;100600.25;;;7.87;83.84
23679;BME280;12016;51.668;6.874;2023-01-13T14:25:35;100591.78;;;7.80;83.69
23679;BME280;12016;51.668;6.874;2023-01-13T14:31:40;100597.16;;;7.80;84.29
23679;BME280;12016;51.668;6.874;2023-01-13T14:37:43;100602.94;;;7.87;83.80
23679;BME280;12016;51.668;6.874;2023-01-13T14:43:47;100620.22;;;7.95;84.81
23679;BME280;12016;51.668;6.874;2023-01-13T14:55:52;100643.44;;;7.85;83.93
23679;BME280;12016;51.668;6.874;2023-01-13T15:01:53;100647.00;;;7.81;83.68
23679;BME280;12016;51.668;6.874;2023-01-13T15:14:01;100679.19;;;7.81;83.00
23679;BME280;12016;51.668;6.874;2023-01-13T15:20:05;100690.72;;;7.81;84.22
23679;BME280;12016;51.668;6.874;2023-01-13T15:26:18;100708.72;;;7.95;82.28
23679;BME280;12016;51.668;6.874;2023-01-13T15:32:20;100708.22;;;7.93;81.43
23679;BME280;12016;51.668;6.874;2023-01-13T15:38:22;100716.97;;;7.98;81.37
23679;BME280;12016;51.668;6.874;2023-01-13T15:44:24;100732.56;;;7.96;80.82
23679;BME280;12016;51.668;6.874;2023-01-13T15:50:45;100741.22;;;8.07;79.70
23679;BME280;12016;51.668;6.874;2023-01-13T15:56:47;100747.59;;;8.11;80.36
23679;BME280;12016;51.668;6.874;2023-01-13T16:02:49;100752.88;;;8.16;78.89
23679;BME280;12016;51.668;6.874;2023-01-13T16:08:51;100756.97;;;8.27;78.01
23679;BME280;12016;51.668;6.874;2023-01-13T16:14:53;100766.63;;;8.28;77.90
23679;BME280;12016;51.668;6.874;2023-01-13T16:20:55;100771.91;;;8.33;76.26
23679;BME280;12016;51.668;6.874;2023-01-13T16:26:56;100797.66;;;8.34;76.27
23679;BME280;12016;51.668;6.874;2023-01-13T16:32:58;100804.09;;;8.33;76.54
23679;BME280;12016;51.668;6.874;2023-01-13T16:39:00;100812.16;;;8.33;75.79
23679;BME280;12016;51.668;6.874;2023-01-13T16:45:02;100827.31;;;8.43;75.67
23679;BME280;12016;51.668;6.874;2023-01-13T16:51:09;100833.16;;;8.45;76.17
23679;BME280;12016;51.668;6.874;2023-01-13T16:57:11;100849.91;;;8.55;75.13
23679;BME280;12016;51.668;6.874;2023-01-13T17:03:13;100861.09;;;8.44;76.90
23679;BME280;12016;51.668;6.874;2023-01-13T17:09:16;100878.13;;;8.53;75.49
23679;BME280;12016;51.668;6.874;2023-01-13T17:15:19;100878.72;;;8.50;76.01
23679;BME280;12016;51.668;6.874;2023-01-13T17:21:20;100887.78;;;8.54;74.95
23679;BME280;12016;51.668;6.874;2023-01-13T17:27:22;100896.34;;;8.56;75.23
23679;BME280;12016;51.668;6.874;2023-01-13T17:33:23;100897.31;;;8.60;75.80
23679;BME280;12016;51.668;6.874;2023-01-13T17:39:25;100904.78;;;8.63;75.98
23679;BME280;12016;51.668;6.874;2023-01-13T17:45:27;100931.56;;;8.68;76.30
23679;BME280;12016;51.668;6.874;2023-01-13T17:51:28;100925.91;;;8.70;76.40
23679;BME280;12016;51.668;6.874;2023-01-13T17:57:30;100928.06;;;8.68;76.52
23679;BME280;12016;51.668;6.874;2023-01-13T18:03:32;100931.28;;;8.70;75.61
23679;BME280;12016;51.668;6.874;2023-01-13T18:09:34;100944.88;;;8.73;75.20
23679;BME280;12016;51.668;6.874;2023-01-13T18:15:35;100958.59;;;8.72;76.03
23679;BME280;12016;51.668;6.874;2023-01-13T18:21:37;100948.75;;;8.67;76.20
23679;BME280;12016;51.668;6.874;2023-01-13T18:28:00;100965.84;;;8.71;75.23
23679;BME280;12016;51.668;6.874;2023-01-13T18:34:03;100962.09;;;8.72;74.79
23679;BME280;12016;51.668;6.874;2023-01-13T18:40:05;100960.91;;;8.78;73.71
23679;BME280;12016;51.668;6.874;2023-01-13T18:46:07;100964.81;;;8.86;72.22
23679;BME280;12016;51.668;6.874;2023-01-13T18:52:08;100964.16;;;8.94;71.74
23679;BME280;12016;51.668;6.874;2023-01-13T18:58:10;100994.38;;;9.00;72.58
23679;BME280;12016;51.668;6.874;2023-01-13T19:04:13;100980.44;;;8.98;71.67
23679;BME280;12016;51.668;6.874;2023-01-13T19:10:16;101006.88;;;8.77;74.33
23679;BME280;12016;51.668;6.874;2023-01-13T19:16:18;101011.78;;;8.56;76.12
23679;BME280;12016;51.668;6.874;2023-01-13T19:22:23;101033.38;;;8.46;74.88
23679;BME280;12016;51.668;6.874;2023-01-13T19:28:27;101022.16;;;8.44;76.48
23679;BME280;12016;51.668;6.874;2023-01-13T19:34:29;101033.31;;;8.32;77.08
23679;BME280;12016;51.668;6.874;2023-01-13T19:40:31;101037.66;;;8.28;77.16
23679;BME280;12016;51.668;6.874;2023-01-13T19:46:33;101039.25;;;8.29;78.33
23679;BME280;12016;51.668;6.874;2023-01-13T19:52:35;101068.38;;;8.41;77.13
23679;BME280;12016;51.668;6.874;2023-01-13T19:58:36;101069.34;;;8.45;75.39
23679;BME280;12016;51.668;6.874;2023-01-13T20:04:38;101074.09;;;8.53;75.63
23679;BME280;12016;51.668;6.874;2023-01-13T20:10:40;101079.19;;;8.54;75.29
23679;BME280;12016;51.668;6.874;2023-01-13T20:16:43;101094.69;;;8.39;76.36
23679;BME280;12016;51.668;6.874;2023-01-13T20:22:45;101086.47;;;8.30;76.30
23679;BME280;12016;51.668;6.874;2023-01-13T20:28:47;101088.56;;;8.33;76.00
23679;BME280;12016;51.668;6.874;2023-01-13T20:34:49;101094.69;;;8.39;75.29
23679;BME280;12016;51.668;6.874;2023-01-13T20:40:57;101118.28;;;8.42;75.35
23679;BME280;12016;51.668;6.874;2023-01-13T20:46:59;101132.31;;;8.34;75.00
23679;BME280;12016;51.668;6.874;2023-01-13T20:53:01;101145.84;;;8.23;77.50
23679;BME280;12016;51.668;6.874;2023-01-13T20:59:03;101147.69;;;8.04;78.11
23679;BME280;12016;51.668;6.874;2023-01-13T21:05:05;101153.59;;;8.01;78.72
23679;BME280;12016;51.668;6.874;2023-01-13T21:11:06;101155.72;;;8.04;78.35
23679;BME280;12016;51.668;6.874;2023-01-13T21:17:11;101166.47;;;8.04;78.36
23679;BME280;12016;51.668;6.874;2023-01-13T21:23:32;101162.78;;;7.95;78.55
23679;BME280;12016;51.668;6.874;2023-01-13T21:29:34;101165.25;;;7.92;79.43
23679;BME280;12016;51.668;6.874;2023-01-13T21:35:36;101176.81;;;7.87;78.08
23679;BME280;12016;51.668;6.874;2023-01-13T21:41:38;101174.69;;;7.84;79.30
23679;BME280;12016;51.668;6.874;2023-01-13T21:47:59;101180.31;;;7.87;77.19
23679;BME280;12016;51.668;6.874;2023-01-13T21:54:00;101192.81;;;7.97;75.71
23679;BME280;12016;51.668;6.874;2023-01-13T22:00:02;101193.22;;;8.09;76.66
23679;BME280;12016;51.668;6.874;2023-01-13T22:06:06;101192.38;;;8.14;75.83
23679;BME280;12016;51.668;6.874;2023-01-13T22:12:08;101200.53;;;8.04;76.10
23679;BME280;12016;51.668;6.874;2023-01-13T22:18:10;101193.97;;;8.15;75.81
23679;BME280;12016;51.668;6.874;2023-01-13T22:24:11;101209.44;;;8.23;75.39
23679;BME280;12016;51.668;6.874;2023-01-13T22:30:17;101216.41;;;8.24;75.36
23679;BME280;12016;51.668;6.874;2023-01-13T22:36:19;101218.19;;;8.34;75.35
23679;BME280;12016;51.668;6.874;2023-01-13T22:42:21;101224.03;;;8.41;75.12
23679;BME280;12016;51.668;6.874;2023-01-13T22:48:23;101232.66;;;8.38;75.93
23679;BME280;12016;51.668;6.874;2023-01-13T22:54:25;101250.75;;;8.51;74.36
23679;BME280;12016;51.668;6.874;2023-01-13T23:00:26;101253.69;;;8.54;74.65
23679;BME280;12016;51.668;6.874;2023-01-13T23:06:29;101262.88;;;8.48;74.58
23679;BME280;12016;51.668;6.874;2023-01-13T23:12:31;101264.72;;;8.53;75.07
23679;BME280;12016;51.668;6.874;2023-01-13T23:18:32;101271.03;;;8.62;74.15
23679;BME280;12016;51.668;6.874;2023-01-13T23:24:34;101278.25;;;8.67;73.21
23679;BME280;12016;51.668;6.874;2023-01-13T23:30:38;101285.75;;;8.70;74.04
23679;BME280;12016;51.668;6.874;2023-01-13T23:36:39;101287.09;;;8.67;73.60
23679;BME280;12016;51.668;6.874;2023-01-13T23:42:43;101288.22;;;8.61;72.88
23679;BME280;12016;51.668;6.874;2023-01-13T23:48:45;101284.22;;;8.58;74.13
23679;BME280;12016;51.668;6.874;2023-01-13T23:54:47;101281.25;;;8.60;74.03
